Time;durP1;ratioP1;P1;durP2;ratioP2;P2;SDS_P1;SDS_P2;PMS_P1;PMS_P2;Temp;Humidity;BMP_temperature;BMP_pressure;BME280_temperature;BME280_humidity;BME280_pressure;Samples;Min_cycle;Max_cycle;Signal;HPM_P1;HPM_P2
2023/09/10 00:00:17;;;;;;;;;13.25;10.00;;;;;29.32;31.03;101042.66;5062077;28;45367;-63
2023/09/10 00:02:42;;;;;;;;;10.25;10.25;;;;;29.30;31.51;101049.22;5061713;28;45207;-64
2023/09/10 00:05:07;;;;;;;;;11.50;10.75;;;;;29.26;31.05;101043.19;5061711;28;45555;-64
2023/09/10 00:07:33;;;;;;;;;9.50;8.00;;;;;29.23;31.35;101039.91;5064818;28;48152;-64
2023/09/10 00:09:58;;;;;;;;;10.00;9.00;;;;;29.24;31.33;101047.03;5065152;27;45178;-64
2023/09/10 00:12:23;;;;;;;;;11.25;11.00;;;;;29.19;31.44;101042.88;5061429;28;48816;-64
2023/09/10 00:14:49;;;;;;;;;13.00;10.25;;;;;29.17;31.04;101035.91;5061786;28;45324;-64
2023/09/10 00:17:14;;;;;;;;;13.75;12.25;;;;;29.15;31.09;101044.13;5061221;28;52010;-64
2023/09/10 00:19:39;;;;;;;;;13.50;11.50;;;;;29.14;31.18;101045.13;5061665;28;46319;-64
2023/09/10 00:22:05;;;;;;;;;13.00;12.25;;;;;29.12;31.75;101043.53;5061011;28;53126;-64
2023/09/10 00:24:30;;;;;;;;;11.25;9.50;;;;;29.08;31.32;101037.56;5061948;28;45244;-64
2023/09/10 00:26:55;;;;;;;;;10.25;9.25;;;;;29.10;31.40;101042.84;5061045;28;50228;-64
2023/09/10 00:29:20;;;;;;;;;9.75;7.25;;;;;29.08;31.40;101050.22;5061218;28;52662;-64
2023/09/10 00:31:46;;;;;;;;;10.00;10.00;;;;;29.05;31.47;101042.38;5060961;28;48759;-65
2023/09/10 00:34:12;;;;;;;;;10.25;9.25;;;;;29.02;31.45;101041.66;5061756;28;45391;-64
2023/09/10 00:36:38;;;;;;;;;12.00;9.25;;;;;29.02;31.75;101044.34;5061039;28;45311;-64
2023/09/10 00:39:04;;;;;;;;;11.00;8.00;;;;;29.02;31.69;101043.53;5059775;28;47655;-64
2023/09/10 00:41:29;;;;;;;;;9.00;9.00;;;;;29.00;31.70;101042.78;5061080;28;45479;-64
2023/09/10 00:43:54;;;;;;;;;9.00;9.00;;;;;28.99;31.72;101041.06;5061200;28;45776;-63
2023/09/10 00:46:20;;;;;;;;;14.00;10.50;;;;;28.94;31.61;101036.06;5076820;28;45438;-64
2023/09/10 00:48:46;;;;;;;;;10.25;10.25;;;;;28.92;31.47;101045.28;5061094;28;45368;-64
2023/09/10 00:51:13;;;;;;;;;12.50;11.25;;;;;28.88;31.81;101042.03;5060613;28;45301;-64
2023/09/10 00:53:39;;;;;;;;;11.75;10.00;;;;;28.85;31.89;101040.44;5059676;28;45407;-64
2023/09/10 00:56:06;;;;;;;;;11.50;10.75;;;;;28.82;31.71;101037.16;5060690;28;45318;-64
2023/09/10 00:58:31;;;;;;;;;14.50;11.50;;;;;28.79;31.67;101037.41;5060842;28;45435;-64
2023/09/10 01:00:58;;;;;;;;;13.75;11.50;;;;;28.76;31.95;101037.69;5059989;28;45522;-64
2023/09/10 01:03:24;;;;;;;;;10.00;10.00;;;;;28.74;32.01;101045.06;5060912;28;45493;-64
2023/09/10 01:05:50;;;;;;;;;12.75;11.00;;;;;28.69;31.64;101046.31;5060480;28;45436;-64
2023/09/10 01:08:15;;;;;;;;;10.00;9.50;;;;;28.68;32.44;101049.16;5067287;28;45374;-64
2023/09/10 01:10:52;;;;;;;;;8.50;6.50;;;;;28.61;31.83;101043.38;5060492;28;45347;-64
2023/09/10 01:13:34;;;;;;;;;14.25;10.75;;;;;28.60;31.89;101048.94;5060836;28;45233;-64
2023/09/10 01:16:06;;;;;;;;;10.25;9.00;;;;;28.59;32.17;101055.31;5058701;28;45672;-64
2023/09/10 01:18:50;;;;;;;;;13.75;11.75;;;;;28.57;32.18;101051.91;5060507;28;45438;-64
2023/09/10 01:21:50;;;;;;;;;9.00;9.00;;;;;28.56;32.55;101058.28;5058339;28;45288;-64
2023/09/10 01:24:23;;;;;;;;;8.50;8.50;;;;;28.49;32.12;101053.41;5059527;28;45281;-64
2023/09/10 01:26:56;;;;;;;;;11.75;9.50;;;;;28.49;32.46;101056.13;5060169;28;45286;-64
2023/09/10 01:29:21;;;;;;;;;13.00;11.75;;;;;28.49;32.21;101057.94;5060089;28;45349;-64
2023/09/10 01:31:51;;;;;;;;;10.00;8.25;;;;;28.44;32.63;101049.38;5058595;28;54947;-64
2023/09/10 01:34:23;;;;;;;;;10.00;9.00;;;;;28.44;32.77;101054.78;5060516;28;45331;-64
2023/09/10 01:36:56;;;;;;;;;11.75;11.00;;;;;28.41;32.28;101049.66;5059925;28;45547;-64
2023/09/10 01:39:26;;;;;;;;;11.00;11.00;;;;;28.40;32.30;101053.34;5060261;28;45335;-64
2023/09/10 01:41:52;;;;;;;;;13.00;9.50;;;;;28.39;32.45;101060.59;5059980;28;45231;-64
2023/09/10 01:44:19;;;;;;;;;9.50;9.25;;;;;28.34;32.88;101057.41;5059064;28;45449;-64
2023/09/10 01:46:45;;;;;;;;;12.25;11.50;;;;;28.32;32.47;101054.84;5060320;28;45550;-64
2023/09/10 01:49:11;;;;;;;;;12.25;11.50;;;;;28.31;32.52;101057.69;5060246;28;45470;-64
2023/09/10 01:51:36;;;;;;;;;10.50;10.50;;;;;28.30;32.52;101058.66;5059547;28;45314;-64
2023/09/10 01:54:02;;;;;;;;;11.50;8.50;;;;;28.28;32.75;101055.25;5060145;28;45240;-64
2023/09/10 01:56:27;;;;;;;;;11.50;10.00;;;;;28.23;32.59;101052.94;5060074;28;45477;-64
2023/09/10 01:58:52;;;;;;;;;9.75;9.75;;;;;28.24;32.78;101051.06;5060107;28;45405;-64
2023/09/10 02:01:18;;;;;;;;;14.50;12.50;;;;;28.21;32.58;101052.19;5058539;28;45368;-64
2023/09/10 02:03:43;;;;;;;;;11.50;9.50;;;;;28.18;32.84;101053.31;5060218;28;45272;-64
2023/09/10 02:06:09;;;;;;;;;13.00;9.75;;;;;28.19;32.49;101052.31;5059158;28;53401;-64
2023/09/10 02:08:34;;;;;;;;;11.00;8.75;;;;;28.18;32.95;101055.16;5066742;28;45452;-64
2023/09/10 02:11:04;;;;;;;;;13.50;10.00;;;;;28.18;33.10;101052.47;5075334;28;45377;-64
2023/09/10 02:13:29;;;;;;;;;11.50;9.25;;;;;28.16;33.20;101049.91;5043770;28;45489;-64
2023/09/10 02:15:55;;;;;;;;;12.25;11.75;;;;;28.13;33.09;101046.59;5039638;28;45142;-64
2023/09/10 02:18:21;;;;;;;;;15.00;12.75;;;;;28.11;32.81;101048.56;5039528;28;45599;-64
2023/09/10 02:20:47;;;;;;;;;12.50;9.50;;;;;28.11;32.63;101046.69;5039069;28;45363;-64
2023/09/10 02:23:12;;;;;;;;;13.00;10.00;;;;;28.08;33.14;101049.66;5039077;28;49083;-64
2023/09/10 02:25:37;;;;;;;;;11.50;9.50;;;;;28.09;33.39;101051.38;5039591;28;45443;-64
2023/09/10 02:28:03;;;;;;;;;11.50;9.25;;;;;28.04;33.35;101048.22;5039496;28;45376;-64
2023/09/10 02:30:28;;;;;;;;;9.25;9.25;;;;;28.03;33.22;101055.44;5039757;28;45316;-64
2023/09/10 02:32:54;;;;;;;;;13.00;10.25;;;;;28.01;32.98;101053.81;5039709;28;45344;-64
2023/09/10 02:35:19;;;;;;;;;10.00;9.25;;;;;27.98;33.52;101057.66;5039615;28;45415;-64
2023/09/10 02:37:44;;;;;;;;;10.75;10.00;;;;;27.97;33.17;101055.91;5039377;28;45392;-64
2023/09/10 02:40:10;;;;;;;;;10.25;8.75;;;;;27.94;33.19;101055.31;5038176;28;45364;-64
2023/09/10 02:42:35;;;;;;;;;13.25;11.25;;;;;27.92;33.39;101055.44;5039713;28;45482;-64
2023/09/10 02:45:02;;;;;;;;;11.50;11.00;;;;;27.91;33.42;101061.81;5039351;28;45574;-64
2023/09/10 02:47:27;;;;;;;;;12.75;11.00;;;;;27.89;33.68;101061.97;5038679;28;46205;-64
2023/09/10 02:49:54;;;;;;;;;11.25;10.25;;;;;27.89;33.43;101066.53;5039380;28;45296;-64
2023/09/10 02:52:19;;;;;;;;;13.50;12.00;;;;;27.82;33.37;101055.34;5039395;28;45281;-64
2023/09/10 02:54:45;;;;;;;;;12.00;10.25;;;;;27.84;33.12;101066.88;5055479;28;45408;-64
2023/09/10 02:57:10;;;;;;;;;13.75;11.25;;;;;27.83;33.30;101067.03;5057330;28;59557;-64
2023/09/10 02:59:35;;;;;;;;;12.00;11.00;;;;;27.82;33.30;101070.69;5059100;28;48551;-64
2023/09/10 03:02:01;;;;;;;;;14.00;11.00;;;;;27.81;33.17;101063.59;5059039;28;55017;-64
2023/09/10 03:04:26;;;;;;;;;13.50;9.75;;;;;27.79;33.36;101066.41;5059202;28;45359;-64
2023/09/10 03:06:51;;;;;;;;;12.75;10.00;;;;;27.77;33.41;101062.97;5058815;28;45364;-64
2023/09/10 03:09:17;;;;;;;;;10.50;9.00;;;;;27.76;33.53;101061.28;5066038;28;45409;-64
2023/09/10 03:11:45;;;;;;;;;12.00;9.75;;;;;27.74;33.45;101055.13;5059424;28;45310;-64
2023/09/10 03:14:10;;;;;;;;;14.25;11.00;;;;;27.73;33.40;101046.19;5059026;28;45453;-63
2023/09/10 03:16:38;;;;;;;;;12.50;11.25;;;;;27.71;33.25;101044.56;5057662;28;45519;-63
2023/09/10 03:19:04;;;;;;;;;12.25;11.00;;;;;27.68;33.54;101045.69;5059168;28;45357;-64
2023/09/10 03:21:29;;;;;;;;;9.25;9.25;;;;;27.67;33.43;101032.31;5059070;28;45232;-64
2023/09/10 03:23:54;;;;;;;;;11.00;11.00;;;;;27.67;33.17;101035.03;5059100;28;46128;-64
2023/09/10 03:26:20;;;;;;;;;10.75;10.25;;;;;27.66;33.35;101036.00;5062373;28;45416;-64
2023/09/10 03:28:45;;;;;;;;;12.75;11.00;;;;;27.64;33.83;101040.69;5062420;28;45212;-64
2023/09/10 03:31:10;;;;;;;;;13.00;11.00;;;;;27.59;33.76;101021.31;5062851;28;45884;-64
2023/09/10 03:33:36;;;;;;;;;12.00;11.25;;;;;27.59;33.83;101021.31;5062221;28;50472;-64
2023/09/10 03:36:01;;;;;;;;;13.50;10.50;;;;;27.57;34.02;101025.00;5060727;28;49429;-64
2023/09/10 03:38:26;;;;;;;;;10.50;9.00;;;;;27.55;33.70;101018.84;5062125;28;45284;-64
2023/09/10 03:40:52;;;;;;;;;8.50;8.50;;;;;27.54;33.89;101021.69;5062379;28;45402;-64
2023/09/10 03:43:17;;;;;;;;;11.50;9.75;;;;;27.53;34.02;101026.25;5062144;28;45261;-64
2023/09/10 03:45:42;;;;;;;;;10.25;9.50;;;;;27.51;33.49;101028.19;5062234;28;46025;-63
2023/09/10 03:48:08;;;;;;;;;9.75;9.75;;;;;27.46;34.14;101021.44;5062020;28;45338;-64
2023/09/10 03:50:34;;;;;;;;;9.50;9.50;;;;;27.50;33.55;101029.19;5062526;28;45319;-63
2023/09/10 03:52:59;;;;;;;;;13.25;11.25;;;;;27.48;33.60;101025.72;5061635;28;45292;-64
2023/09/10 03:55:25;;;;;;;;;9.50;9.25;;;;;27.46;33.46;101025.03;5062134;28;45345;-64
2023/09/10 03:57:50;;;;;;;;;12.00;9.75;;;;;27.47;33.46;101025.88;5061901;28;45391;-64
2023/09/10 04:00:15;;;;;;;;;11.25;10.50;;;;;27.44;33.58;101028.81;5062377;28;45354;-64
2023/09/10 04:02:41;;;;;;;;;9.25;9.25;;;;;27.44;34.09;101020.72;5061791;28;45346;-64
2023/09/10 04:05:09;;;;;;;;;10.75;10.00;;;;;27.40;34.11;101022.81;5061524;28;46215;-64
2023/09/10 04:07:34;;;;;;;;;11.00;10.25;;;;;27.41;34.22;101035.34;5065099;28;45560;-64
2023/09/10 04:09:59;;;;;;;;;10.25;10.25;;;;;27.36;34.32;101027.56;5065129;27;45613;-64
2023/09/10 04:12:25;;;;;;;;;11.75;9.00;;;;;27.35;33.88;101025.84;5061894;28;45255;-64
2023/09/10 04:14:50;;;;;;;;;13.50;10.25;;;;;27.33;34.38;101029.66;5061331;28;60934;-64
2023/09/10 04:17:16;;;;;;;;;12.00;11.25;;;;;27.32;34.26;101028.81;5061626;28;45305;-63
2023/09/10 04:19:42;;;;;;;;;9.50;9.50;;;;;27.31;34.42;101028.91;5060512;28;45333;-64
2023/09/10 04:22:07;;;;;;;;;11.75;11.00;;;;;27.27;34.10;101031.03;5059893;28;45424;-63
2023/09/10 04:24:33;;;;;;;;;11.00;9.25;;;;;27.27;33.77;101028.31;5061874;28;45418;-64
2023/09/10 04:26:58;;;;;;;;;11.25;9.25;;;;;27.21;34.31;101024.28;5061300;28;45310;-64
2023/09/10 04:29:24;;;;;;;;;11.50;8.75;;;;;27.23;34.20;101024.13;5077636;28;45481;-64
2023/09/10 04:31:50;;;;;;;;;12.75;10.50;;;;;27.21;33.90;101024.28;5061428;28;45469;-64
2023/09/10 04:34:16;;;;;;;;;9.00;8.75;;;;;27.22;34.01;101027.81;5061430;28;45685;-64
2023/09/10 04:36:41;;;;;;;;;9.75;9.75;;;;;27.20;34.42;101019.84;5060108;28;45225;-64
2023/09/10 04:39:08;;;;;;;;;12.25;8.50;;;;;27.18;34.52;101029.94;5061777;28;45220;-64
2023/09/10 04:41:34;;;;;;;;;15.00;12.00;;;;;27.15;34.49;101022.06;5061159;28;45252;-64
2023/09/10 04:43:59;;;;;;;;;9.50;9.00;;;;;27.12;33.86;101032.22;5061330;28;45384;-63
2023/09/10 04:46:27;;;;;;;;;10.25;9.50;;;;;27.10;34.66;101026.97;5059899;28;46551;-64
2023/09/10 04:48:52;;;;;;;;;12.25;11.00;;;;;27.11;34.73;101034.09;5049977;28;45363;-63
2023/09/10 04:51:18;;;;;;;;;10.25;10.00;;;;;27.08;34.29;101027.09;5040593;28;45383;-63
2023/09/10 04:53:44;;;;;;;;;12.00;11.25;;;;;27.04;34.60;101030.16;5048788;28;45232;-64
2023/09/10 04:56:10;;;;;;;;;11.75;10.75;;;;;27.05;34.00;101031.88;5060881;28;45395;-64
2023/09/10 04:58:35;;;;;;;;;12.00;11.00;;;;;27.02;34.13;101032.97;5061282;28;45337;-63
2023/09/10 05:01:00;;;;;;;;;8.75;8.75;;;;;27.00;34.07;101026.00;5060873;28;45442;-64
2023/09/10 05:03:26;;;;;;;;;13.00;12.50;;;;;26.97;34.27;101024.41;5061076;28;46196;-64
2023/09/10 05:06:01;;;;;;;;;11.25;11.25;;;;;26.99;34.64;101026.97;5058557;28;45326;-64
2023/09/10 05:08:27;;;;;;;;;11.25;11.25;;;;;26.98;34.63;101039.59;5068154;28;45368;-64
2023/09/10 05:10:54;;;;;;;;;11.00;7.50;;;;;26.95;34.39;101037.13;5060477;28;45227;-64
2023/09/10 05:13:19;;;;;;;;;13.50;13.00;;;;;26.95;34.05;101036.28;5060726;28;45459;-63
2023/09/10 05:15:46;;;;;;;;;10.50;9.00;;;;;26.95;34.24;101034.44;5059453;28;45518;-63
2023/09/10 05:18:12;;;;;;;;;10.00;9.75;;;;;26.90;34.61;101036.63;5059681;28;45300;-63
2023/09/10 05:20:37;;;;;;;;;14.75;11.50;;;;;26.90;34.44;101032.09;5060276;28;50103;-64
2023/09/10 05:23:02;;;;;;;;;13.25;12.25;;;;;26.92;34.34;101032.00;5060587;28;46014;-64
2023/09/10 05:25:28;;;;;;;;;12.25;9.75;;;;;26.91;34.88;101035.66;5060502;28;45445;-63
2023/09/10 05:27:53;;;;;;;;;16.00;12.75;;;;;26.89;35.03;101043.88;5060810;28;45294;-64
2023/09/10 05:30:18;;;;;;;;;11.50;11.25;;;;;26.86;34.51;101032.47;5059119;28;45294;-63
2023/09/10 05:32:44;;;;;;;;;12.25;11.50;;;;;26.84;34.71;101046.09;5060540;28;45378;-64
2023/09/10 05:35:10;;;;;;;;;12.25;11.00;;;;;26.84;34.59;101037.13;5060262;28;45376;-64
2023/09/10 05:37:35;;;;;;;;;13.50;12.25;;;;;26.80;34.91;101039.19;5059346;28;45532;-64
2023/09/10 05:40:02;;;;;;;;;15.75;14.25;;;;;26.80;34.52;101041.88;5060312;28;45550;-64
2023/09/10 05:42:27;;;;;;;;;12.25;11.00;;;;;26.77;35.18;101048.38;5058753;28;45625;-64
2023/09/10 05:44:53;;;;;;;;;16.75;13.25;;;;;26.76;34.41;101043.13;5060255;28;45294;-63
2023/09/10 05:47:20;;;;;;;;;14.50;13.50;;;;;26.74;34.67;101040.56;5060111;28;45315;-63
2023/09/10 05:49:47;;;;;;;;;16.75;14.25;;;;;26.73;35.32;101048.72;5060220;28;45444;-64
2023/09/10 05:52:12;;;;;;;;;16.75;14.75;;;;;26.68;34.90;101041.00;5059427;28;45277;-64
2023/09/10 05:54:38;;;;;;;;;17.25;15.25;;;;;26.68;34.97;101048.19;5059942;28;45492;-63
2023/09/10 05:57:03;;;;;;;;;14.00;13.25;;;;;26.67;34.66;101058.13;5060316;28;45398;-64
2023/09/10 05:59:28;;;;;;;;;16.00;13.25;;;;;26.68;35.29;101054.47;5060050;28;45240;-64
2023/09/10 06:01:54;;;;;;;;;16.75;14.75;;;;;26.66;34.83;101056.41;5060352;28;45331;-64
2023/09/10 06:04:19;;;;;;;;;16.75;16.00;;;;;26.66;34.78;101059.09;5058644;28;45366;-64
2023/09/10 06:06:44;;;;;;;;;15.25;13.75;;;;;26.67;34.93;101059.97;5059822;28;45426;-64
2023/09/10 06:09:10;;;;;;;;;15.00;13.00;;;;;26.66;34.77;101060.94;5066848;28;45363;-63
2023/09/10 06:11:35;;;;;;;;;15.25;12.00;;;;;26.66;35.12;101055.56;5059332;28;46455;-63
2023/09/10 06:14:00;;;;;;;;;14.00;14.00;;;;;26.63;34.82;101056.66;5058249;28;49366;-63
2023/09/10 06:16:26;;;;;;;;;14.75;13.00;;;;;26.65;34.92;101056.53;5059662;28;45245;-63
2023/09/10 06:18:51;;;;;;;;;17.75;14.25;;;;;26.63;35.33;101058.47;5059699;28;45503;-63
2023/09/10 06:21:17;;;;;;;;;12.75;11.50;;;;;26.65;35.43;101059.22;5059772;28;45348;-64
2023/09/10 06:23:42;;;;;;;;;12.75;11.00;;;;;26.64;35.08;101057.50;5059910;28;45315;-63
2023/09/10 06:26:08;;;;;;;;;14.00;13.50;;;;;26.64;35.58;101063.78;5059895;28;45478;-63
2023/09/10 06:28:33;;;;;;;;;16.00;13.75;;;;;26.62;35.57;101060.31;5058188;28;45269;-64
2023/09/10 06:30:58;;;;;;;;;12.50;12.25;;;;;26.58;34.89;101054.31;5059811;28;45236;-64
2023/09/10 06:33:24;;;;;;;;;14.50;12.75;;;;;26.65;35.55;101062.78;5059094;28;51930;-64
2023/09/10 06:35:49;;;;;;;;;16.25;15.50;;;;;26.66;35.27;101056.41;5075074;28;45549;-64
2023/09/10 06:38:14;;;;;;;;;13.00;12.75;;;;;26.68;35.60;101046.38;5059736;28;45321;-64
2023/09/10 06:40:40;;;;;;;;;13.00;13.00;;;;;26.69;35.76;101056.19;5058323;28;47287;-64
2023/09/10 06:43:06;;;;;;;;;13.25;12.00;;;;;26.71;35.17;101058.75;5059559;28;45222;-64
2023/09/10 06:45:31;;;;;;;;;16.50;15.00;;;;;26.68;35.56;101051.78;5059771;28;45223;-64
2023/09/10 06:47:57;;;;;;;;;15.00;11.00;;;;;26.72;35.58;101061.31;5059280;28;45382;-64
2023/09/10 06:50:22;;;;;;;;;14.00;13.00;;;;;26.75;35.23;101060.25;5059378;28;45257;-64
2023/09/10 06:52:47;;;;;;;;;14.50;13.00;;;;;26.77;35.71;101063.72;5058714;28;51822;-64
2023/09/10 06:55:14;;;;;;;;;14.00;12.75;;;;;26.81;35.90;101069.72;5048136;28;52356;-64
2023/09/10 06:57:39;;;;;;;;;15.00;14.25;;;;;26.81;36.05;101069.72;5059462;28;45403;-64
2023/09/10 07:00:05;;;;;;;;;12.00;10.50;;;;;26.84;35.75;101075.75;5059797;28;46898;-63
2023/09/10 07:02:30;;;;;;;;;15.50;11.50;;;;;26.83;35.39;101060.53;5061578;28;45444;-63
2023/09/10 07:04:56;;;;;;;;;15.50;12.25;;;;;26.87;35.46;101067.41;5061223;28;52679;-64
2023/09/10 07:07:21;;;;;;;;;9.50;9.50;;;;;26.86;35.34;101054.88;5063925;28;45270;-64
2023/09/10 07:09:46;;;;;;;;;12.75;12.00;;;;;26.90;35.95;101052.81;5066604;28;46132;-64
2023/09/10 07:12:12;;;;;;;;;13.25;11.25;;;;;26.93;35.53;101057.97;5062415;28;45157;-64
2023/09/10 07:14:37;;;;;;;;;15.00;10.00;;;;;26.94;35.75;101054.28;5062922;28;45769;-63
2023/09/10 07:17:03;;;;;;;;;15.75;9.50;;;;;26.99;35.49;101064.72;5062408;28;49584;-64
2023/09/10 07:19:28;;;;;;;;;12.00;12.00;;;;;27.00;35.81;101071.81;5062680;28;46135;-64
2023/09/10 07:21:53;;;;;;;;;13.00;12.75;;;;;27.04;35.47;101076.88;5062320;28;45335;-63
2023/09/10 07:24:20;;;;;;;;;11.00;10.25;;;;;27.03;35.44;101077.84;5062713;28;45178;-64
2023/09/10 07:26:45;;;;;;;;;20.75;16.00;;;;;27.06;35.80;101080.28;5060683;28;45310;-64
2023/09/10 07:29:15;;;;;;;;;15.75;14.75;;;;;27.08;35.52;101072.94;5062575;28;45195;-64
2023/09/10 07:31:42;;;;;;;;;15.75;13.75;;;;;27.11;35.86;101082.63;5062385;28;45363;-64
2023/09/10 07:34:07;;;;;;;;;15.75;14.50;;;;;27.13;36.19;101091.47;5062379;28;45248;-64
2023/09/10 07:36:32;;;;;;;;;17.50;15.25;;;;;27.15;35.54;101094.88;5061981;28;45473;-64
2023/09/10 07:38:58;;;;;;;;;13.00;12.25;;;;;27.19;35.75;101084.72;5062168;28;50961;-64
2023/09/10 07:41:23;;;;;;;;;12.00;11.50;;;;;27.21;36.41;101089.00;5062113;28;45228;-64
2023/09/10 07:43:49;;;;;;;;;13.50;10.75;;;;;27.24;35.51;101102.25;5062447;28;45323;-64
2023/09/10 07:46:14;;;;;;;;;10.00;10.00;;;;;27.23;36.39;101095.16;5062218;28;45241;-64
2023/09/10 07:48:39;;;;;;;;;13.00;13.00;;;;;27.27;35.63;101090.38;5062083;28;45395;-64
2023/09/10 07:51:05;;;;;;;;;10.25;10.25;;;;;27.29;36.43;101096.47;5062132;28;45254;-64
2023/09/10 07:53:31;;;;;;;;;12.50;11.00;;;;;27.33;35.96;101108.75;5061656;28;45369;-64
2023/09/10 07:55:56;;;;;;;;;12.25;12.25;;;;;27.35;35.74;101089.75;5061881;28;45244;-64
2023/09/10 07:58:22;;;;;;;;;15.25;13.25;;;;;27.40;36.27;101098.38;5062029;28;46211;-64
2023/09/10 08:00:47;;;;;;;;;12.25;11.75;;;;;27.44;36.02;101102.53;5061785;28;45318;-64
2023/09/10 08:03:14;;;;;;;;;13.00;11.75;;;;;27.46;35.86;101097.88;5060729;28;45368;-63
2023/09/10 08:05:40;;;;;;;;;14.75;10.00;;;;;27.51;36.21;101087.56;5077133;27;45426;-63
2023/09/10 08:08:05;;;;;;;;;8.75;8.75;;;;;27.56;36.32;101087.19;5084283;27;45561;-63
2023/09/10 08:10:32;;;;;;;;;10.50;9.50;;;;;27.61;36.23;101093.09;5061455;28;45433;-63
2023/09/10 08:12:58;;;;;;;;;11.75;10.50;;;;;27.65;36.17;101096.41;5061863;28;45220;-63
2023/09/10 08:15:24;;;;;;;;;11.25;10.00;;;;;27.69;35.90;101097.84;5061644;28;45253;-63
2023/09/10 08:17:52;;;;;;;;;10.00;9.25;;;;;27.73;35.94;101096.59;5061692;28;45244;-63
2023/09/10 08:20:17;;;;;;;;;10.50;8.00;;;;;27.78;35.80;101091.69;5061480;28;45276;-63
2023/09/10 08:22:43;;;;;;;;;12.25;9.50;;;;;27.81;35.77;101094.16;5061713;28;45292;-63
2023/09/10 08:25:09;;;;;;;;;12.00;9.00;;;;;27.87;35.83;101093.66;5061515;28;45334;-63
2023/09/10 08:27:35;;;;;;;;;14.75;10.25;;;;;27.94;35.65;101095.81;5061604;28;45726;-63
2023/09/10 08:30:05;;;;;;;;;11.00;9.00;;;;;27.98;35.89;101091.91;5061376;28;45296;-63
2023/09/10 08:32:31;;;;;;;;;13.75;11.75;;;;;28.04;35.52;101099.53;5061509;28;45236;-63
2023/09/10 08:34:56;;;;;;;;;14.25;11.25;;;;;28.10;35.74;101099.03;5061338;28;45761;-63
2023/09/10 08:37:22;;;;;;;;;10.00;9.00;;;;;28.13;35.85;101092.50;5059944;28;53686;-63
2023/09/10 08:39:48;;;;;;;;;13.25;10.75;;;;;28.18;35.91;101092.97;5061234;28;45342;-63
2023/09/10 08:42:24;;;;;;;;;13.75;12.50;;;;;28.25;35.86;101090.59;5061410;28;45409;-63
2023/09/10 08:44:55;;;;;;;;;10.25;9.75;;;;;28.33;35.55;101082.72;5061084;28;45438;-63
2023/09/10 08:47:23;;;;;;;;;16.25;11.25;;;;;28.41;35.80;101092.88;5059808;28;48117;-63
2023/09/10 08:49:52;;;;;;;;;11.75;10.50;;;;;28.47;35.87;101093.22;5060893;28;45282;-63
2023/09/10 08:52:19;;;;;;;;;12.00;11.75;;;;;28.53;35.25;101084.59;5060764;28;45244;-63
2023/09/10 08:54:44;;;;;;;;;8.25;8.00;;;;;28.60;35.83;101081.38;5060723;28;45450;-63
2023/09/10 08:57:12;;;;;;;;;10.00;10.00;;;;;28.68;35.55;101084.31;5060948;28;46515;-63
2023/09/10 08:59:38;;;;;;;;;10.25;9.00;;;;;28.74;35.70;101086.47;5061014;28;45442;-63
2023/09/10 09:02:04;;;;;;;;;10.00;8.75;;;;;28.80;35.59;101071.56;5059904;28;45379;-63
2023/09/10 09:04:30;;;;;;;;;10.00;8.75;;;;;28.88;35.18;101068.19;5060681;28;45339;-63
2023/09/10 09:07:00;;;;;;;;;12.75;12.25;;;;;28.96;35.19;101068.41;5060443;28;46421;-64
2023/09/10 09:09:33;;;;;;;;;11.25;10.00;;;;;29.03;35.51;101061.44;5067563;28;45278;-64
2023/09/10 09:11:59;;;;;;;;;12.25;11.00;;;;;29.10;35.61;101062.63;5060775;28;45280;-64
2023/09/10 09:14:27;;;;;;;;;11.50;10.50;;;;;29.19;35.63;101067.22;5060933;28;45264;-64
2023/09/10 09:16:53;;;;;;;;;11.75;10.75;;;;;29.28;35.36;101062.88;5060420;28;46158;-64
2023/09/10 09:19:21;;;;;;;;;12.50;11.75;;;;;29.40;35.24;101065.50;5060687;28;45390;-64
2023/09/10 09:21:49;;;;;;;;;13.50;12.25;;;;;29.49;35.52;101061.94;5059914;28;45401;-64
2023/09/10 09:24:14;;;;;;;;;10.75;9.25;;;;;29.61;35.57;101070.81;5059151;28;45467;-64
2023/09/10 09:26:41;;;;;;;;;8.25;8.25;;;;;29.72;35.31;101064.44;5060426;28;45178;-64
2023/09/10 09:29:08;;;;;;;;;13.00;10.75;;;;;29.82;35.21;101065.31;5060713;28;45238;-64
2023/09/10 09:31:33;;;;;;;;;9.25;9.25;;;;;29.96;35.49;101064.06;5060553;28;45311;-64
2023/09/10 09:33:59;;;;;;;;;10.25;8.25;;;;;30.08;35.23;101064.81;5060288;28;45579;-64
2023/09/10 09:36:27;;;;;;;;;11.75;11.75;;;;;30.25;35.27;101061.38;5060130;28;46084;-64
2023/09/10 09:38:53;;;;;;;;;9.25;8.50;;;;;30.43;34.99;101063.38;5059177;28;45566;-64
2023/09/10 09:41:18;;;;;;;;;13.00;12.00;;;;;30.58;34.59;101053.81;5059679;28;45185;-64
2023/09/10 09:43:44;;;;;;;;;9.75;9.75;;;;;30.79;35.14;101050.06;5060386;28;45452;-64
2023/09/10 09:46:10;;;;;;;;;11.00;10.00;;;;;31.01;34.83;101045.31;5060352;28;45921;-64
2023/09/10 09:48:36;;;;;;;;;11.00;9.75;;;;;31.24;35.19;101034.94;5060316;28;45208;-64
2023/09/10 09:51:03;;;;;;;;;10.00;9.00;;;;;31.46;35.41;101036.41;5059056;28;45741;-64
2023/09/10 09:53:31;;;;;;;;;11.75;10.50;;;;;31.67;35.08;101041.56;5060154;28;45399;-64
2023/09/10 09:55:59;;;;;;;;;13.50;12.50;;;;;31.89;34.64;101039.44;5059852;28;46237;-64
2023/09/10 09:58:24;;;;;;;;;10.25;9.50;;;;;32.06;34.68;101037.72;5058787;28;45230;-65
2023/09/10 10:00:49;;;;;;;;;11.00;10.00;;;;;32.27;34.75;101040.16;5060307;28;45313;-64
2023/09/10 10:03:18;;;;;;;;;12.75;11.50;;;;;32.42;34.41;101035.84;5060242;28;46564;-64
2023/09/10 10:05:43;;;;;;;;;13.75;12.25;;;;;32.56;33.92;101034.41;5057789;28;47833;-65
2023/09/10 10:08:09;;;;;;;;;13.50;11.00;;;;;32.73;34.06;101048.16;5067000;28;45353;-65
2023/09/10 10:10:35;;;;;;;;;14.00;10.50;;;;;32.86;33.63;101045.88;5060005;28;45332;-65
2023/09/10 10:13:01;;;;;;;;;11.75;11.75;;;;;33.01;34.06;101043.41;5059938;28;45468;-64
2023/09/10 10:15:27;;;;;;;;;9.75;9.50;;;;;33.12;33.56;101044.13;5060021;28;46530;-64
2023/09/10 10:17:53;;;;;;;;;12.00;9.75;;;;;33.20;33.79;101031.41;5059999;28;45320;-64
2023/09/10 10:20:19;;;;;;;;;12.00;10.50;;;;;33.31;33.47;101037.59;5060038;28;45417;-64
2023/09/10 10:22:46;;;;;;;;;9.75;9.75;;;;;33.44;33.10;101037.16;5058397;28;45439;-64
2023/09/10 10:25:12;;;;;;;;;10.75;10.50;;;;;33.56;33.42;101029.50;5059390;28;46176;-65
2023/09/10 10:27:38;;;;;;;;;9.50;9.50;;;;;33.68;33.10;101025.47;5059582;28;45492;-64
2023/09/10 10:30:03;;;;;;;;;10.00;9.00;;;;;33.84;33.42;101032.84;5058372;28;45466;-64
2023/09/10 10:32:43;;;;;;;;;9.25;9.25;;;;;34.02;33.44;101030.81;5059825;28;45354;-65
2023/09/10 10:35:10;;;;;;;;;11.50;8.75;;;;;34.23;33.38;101036.78;5061165;28;46090;-64
2023/09/10 10:37:38;;;;;;;;;12.50;11.50;;;;;34.43;33.43;101043.63;5063108;28;45130;-64
2023/09/10 10:40:10;;;;;;;;;13.25;12.25;;;;;34.65;32.90;101028.44;5062925;28;45276;-64
2023/09/10 10:42:51;;;;;;;;;10.50;9.50;;;;;34.91;32.86;101027.38;5079231;28;45274;-64
2023/09/10 10:45:17;;;;;;;;;12.50;10.50;;;;;35.15;32.41;101025.59;5063156;28;46254;-64
2023/09/10 10:47:44;;;;;;;;;11.50;10.00;;;;;35.41;32.56;101022.59;5062982;28;45203;-64
2023/09/10 10:50:11;;;;;;;;;13.00;11.00;;;;;35.68;32.74;101019.53;5061908;28;45379;-64
2023/09/10 10:52:58;;;;;;;;;13.00;12.00;;;;;35.97;32.73;101012.53;5061331;28;45829;-64
2023/09/10 10:55:25;;;;;;;;;14.50;11.75;;;;;36.26;32.31;101006.28;5054231;28;46575;-64
2023/09/10 10:57:52;;;;;;;;;13.00;11.50;;;;;36.54;32.27;101009.31;5044499;28;45447;-64
2023/09/10 11:00:18;;;;;;;;;9.00;8.75;;;;;36.87;32.17;101010.84;5042991;28;45288;-64
2023/09/10 11:02:45;;;;;;;;;10.00;9.00;;;;;37.18;32.69;101010.63;5042456;28;45265;-64
2023/09/10 11:05:10;;;;;;;;;9.50;9.50;;;;;37.50;32.34;101008.50;5042411;28;45608;-64
2023/09/10 11:07:35;;;;;;;;;9.25;9.00;;;;;37.86;32.29;101006.78;5049479;28;45430;-64